Time;durP1;ratioP1;P1;durP2;ratioP2;P2;SDS_P1;SDS_P2;PMS_P1;PMS_P2;Temp;Humidity;BMP_temperature;BMP_pressure;BME280_temperature;BME280_humidity;BME280_pressure;Samples;Min_cycle;Max_cycle;Signal;HPM_P1;HPM_P2
2021/05/04 00:01:07;;;;;;;5.25;1.63;;;13.00;49.30;;;;;;5076081;28;20097;-74
2021/05/04 00:03:32;;;;;;;4.95;1.23;;;13.10;49.50;;;;;;5058124;28;20115;-76
2021/05/04 00:05:58;;;;;;;8.38;1.67;;;13.10;49.10;;;;;;5041164;28;20031;-74
2021/05/04 00:08:24;;;;;;;6.10;1.73;;;13.20;49.60;;;;;;5058140;28;20369;-74
2021/05/04 00:10:49;;;;;;;6.45;1.25;;;13.20;50.00;;;;;;5041185;28;20035;-71
2021/05/04 00:13:16;;;;;;;3.72;1.40;;;13.20;49.40;;;;;;5075901;28;20118;-73
2021/05/04 00:15:42;;;;;;;9.65;1.20;;;13.10;49.70;;;;;;5057345;28;20017;-73
2021/05/04 00:18:07;;;;;;;7.82;1.42;;;13.20;50.20;;;;;;5057758;28;20086;-74
2021/05/04 00:20:33;;;;;;;4.72;1.80;;;13.20;50.50;;;;;;5075507;28;20436;-74
2021/05/04 00:22:58;;;;;;;3.60;1.52;;;13.30;50.90;;;;;;5057949;28;20025;-75
2021/05/04 00:25:24;;;;;;;6.10;1.80;;;13.20;51.30;;;;;;5057158;28;20049;-73
2021/05/04 00:27:50;;;;;;;5.00;1.50;;;13.10;51.60;;;;;;5057876;28;20035;-73
2021/05/04 00:30:16;;;;;;;4.10;2.00;;;13.10;53.20;;;;;;5075647;28;20119;-71
2021/05/04 00:32:41;;;;;;;9.07;1.48;;;13.00;54.20;;;;;;5057474;28;20031;-72
2021/05/04 00:35:07;;;;;;;5.13;1.30;;;12.90;54.60;;;;;;5057541;28;20036;-75
2021/05/04 00:37:33;;;;;;;11.30;1.90;;;12.80;55.80;;;;;;5075397;28;20170;-74
2021/05/04 00:39:59;;;;;;;5.40;1.83;;;12.80;57.50;;;;;;5037291;28;20119;-73
2021/05/04 00:42:25;;;;;;;3.35;1.60;;;12.60;58.00;;;;;;5037417;28;20025;-73
2021/05/04 00:44:52;;;;;;;6.78;1.50;;;12.50;58.50;;;;;;5004747;28;20025;-79
2021/05/04 00:47:18;;;;;;;6.10;1.90;;;12.40;60.40;;;;;;5054002;28;20099;-74
2021/05/04 00:49:44;;;;;;;5.60;1.63;;;12.30;62.90;;;;;;5037241;28;20036;-74
2021/05/04 00:52:10;;;;;;;5.10;2.00;;;12.10;64.80;;;;;;5020828;28;20044;-72
2021/05/04 00:54:36;;;;;;;7.40;2.03;;;11.90;67.40;;;;;;5037606;28;20028;-73
2021/05/04 00:57:01;;;;;;;5.80;2.17;;;11.70;68.80;;;;;;5072426;28;20043;-72
2021/05/04 00:59:28;;;;;;;12.93;3.20;;;11.40;70.60;;;;;;5023646;28;20028;-73
2021/05/04 01:01:55;;;;;;;5.77;1.70;;;11.20;72.30;;;;;;5075057;28;20108;-75
2021/05/04 01:04:22;;;;;;;6.77;1.97;;;11.00;74.30;;;;;;5074962;28;20020;-72
2021/05/04 01:06:48;;;;;;;10.47;2.50;;;10.70;76.30;;;;;;5074631;28;20030;-73
2021/05/04 01:09:15;;;;;;;9.27;2.63;;;10.50;77.70;;;;;;5040204;28;20037;-73
2021/05/04 01:11:43;;;;;;;11.97;2.40;;;10.30;80.10;;;;;;5040018;28;20082;-73
2021/05/04 01:14:09;;;;;;;4.73;2.00;;;10.20;81.10;;;;;;5056206;28;20540;-74
2021/05/04 01:16:34;;;;;;;5.00;2.37;;;9.90;83.50;;;;;;5056743;28;20479;-72
2021/05/04 01:19:00;;;;;;;8.37;2.67;;;9.80;85.40;;;;;;5074311;28;20032;-72
2021/05/04 01:21:26;;;;;;;9.33;3.37;;;9.70;87.20;;;;;;5057109;28;20039;-75
2021/05/04 01:23:51;;;;;;;10.13;3.50;;;9.50;89.20;;;;;;5056659;28;20417;-72
2021/05/04 01:26:17;;;;;;;8.10;2.83;;;9.30;90.30;;;;;;5074076;28;20052;-73
2021/05/04 01:28:43;;;;;;;9.60;3.53;;;9.20;90.80;;;;;;5055936;28;20031;-73
2021/05/04 01:31:09;;;;;;;9.57;3.50;;;9.10;91.30;;;;;;5056796;28;20036;-73
2021/05/04 01:33:34;;;;;;;9.57;3.33;;;9.00;91.50;;;;;;5074272;28;20033;-71
2021/05/04 01:36:01;;;;;;;10.90;3.80;;;9.00;91.90;;;;;;5056393;28;20043;-72
2021/05/04 01:38:26;;;;;;;9.73;4.03;;;8.90;92.10;;;;;;5039447;28;20464;-73
2021/05/04 01:40:52;;;;;;;9.73;3.57;;;8.90;92.40;;;;;;5056586;28;20032;-71
2021/05/04 01:43:18;;;;;;;8.43;4.00;;;8.90;92.70;;;;;;5054001;28;20024;-72
2021/05/04 01:45:43;;;;;;;6.83;3.67;;;8.90;92.70;;;;;;5034017;28;20448;-78
2021/05/04 01:48:09;;;;;;;8.43;3.70;;;8.80;92.60;;;;;;5039503;28;20039;-77
2021/05/04 01:50:35;;;;;;;6.57;3.50;;;8.90;92.60;;;;;;5073751;28;20709;-78
2021/05/04 01:53:00;;;;;;;6.83;3.53;;;8.90;92.60;;;;;;5056158;28;20041;-79
2021/05/04 01:55:26;;;;;;;9.97;3.93;;;8.90;92.40;;;;;;5056101;28;20044;-76
2021/05/04 01:57:52;;;;;;;10.10;3.70;;;8.90;92.60;;;;;;5073087;28;20041;-80
2021/05/04 02:00:18;;;;;;;9.73;3.70;;;8.80;92.40;;;;;;5073710;28;20082;-78
2021/05/04 02:02:43;;;;;;;5.67;3.80;;;8.90;92.60;;;;;;5035899;28;20035;-79
2021/05/04 02:05:10;;;;;;;8.37;3.50;;;8.90;92.70;;;;;;5053805;28;20028;-77
2021/05/04 02:07:35;;;;;;;8.43;3.70;;;8.80;92.90;;;;;;5054146;28;20448;-77
2021/05/04 02:10:01;;;;;;;7.53;3.70;;;8.80;92.80;;;;;;5035674;28;20069;-76
2021/05/04 02:12:27;;;;;;;7.20;4.07;;;8.80;93.10;;;;;;5053600;28;20029;-72
2021/05/04 02:14:54;;;;;;;7.30;4.07;;;8.80;93.20;;;;;;5035628;28;20047;-72
2021/05/04 02:17:19;;;;;;;9.53;3.87;;;8.80;93.30;;;;;;5035646;28;20473;-73
2021/05/04 02:19:45;;;;;;;8.27;4.50;;;8.80;93.30;;;;;;5065153;28;20090;-72
2021/05/04 02:22:11;;;;;;;6.70;3.87;;;8.80;93.30;;;;;;5055102;28;20115;-75
2021/05/04 02:24:36;;;;;;;7.97;4.90;;;8.80;93.40;;;;;;5073161;28;20068;-72
2021/05/04 02:27:02;;;;;;;9.27;4.00;;;8.80;93.40;;;;;;5038608;28;20563;-73
2021/05/04 02:29:28;;;;;;;7.60;3.90;;;8.80;93.40;;;;;;5055925;28;20082;-72
2021/05/04 02:31:53;;;;;;;10.13;3.97;;;8.80;93.30;;;;;;5038862;28;20036;-73
2021/05/04 02:34:19;;;;;;;9.20;3.57;;;8.70;93.30;;;;;;5056046;28;20036;-72
2021/05/04 02:36:45;;;;;;;6.70;3.43;;;8.80;93.60;;;;;;5072507;28;20028;-73
2021/05/04 02:39:11;;;;;;;9.27;4.13;;;8.80;93.10;;;;;;5055323;28;20032;-73
2021/05/04 02:41:36;;;;;;;6.40;3.37;;;8.80;93.10;;;;;;5038832;28;20048;-72
2021/05/04 02:44:02;;;;;;;7.43;3.10;;;8.80;92.90;;;;;;5055367;28;20063;-72
2021/05/04 02:46:31;;;;;;;7.47;3.10;;;8.80;92.80;;;;;;5073210;28;20028;-73
2021/05/04 02:48:57;;;;;;;10.83;3.77;;;8.80;92.90;;;;;;5055559;28;20065;-73
2021/05/04 02:51:23;;;;;;;5.30;3.00;;;8.80;92.80;;;;;;5072750;28;20032;-73
2021/05/04 02:53:49;;;;;;;6.43;3.10;;;8.80;92.80;;;;;;5073285;28;20055;-73
2021/05/04 02:56:15;;;;;;;7.77;2.90;;;8.80;92.90;;;;;;5055354;28;20468;-71
2021/05/04 02:58:41;;;;;;;7.50;3.57;;;8.80;93.00;;;;;;5038705;28;20032;-72
2021/05/04 03:01:06;;;;;;;6.67;3.53;;;8.80;93.20;;;;;;5072844;28;20033;-71
2021/05/04 03:03:34;;;;;;;6.07;3.30;;;8.80;93.30;;;;;;5072908;28;20020;-74
2021/05/04 03:06:01;;;;;;;8.70;3.30;;;8.80;93.50;;;;;;5073160;28;20062;-71
2021/05/04 03:08:27;;;;;;;5.90;3.60;;;8.80;93.70;;;;;;5072851;28;20342;-71
2021/05/04 03:10:53;;;;;;;7.57;3.67;;;8.70;93.60;;;;;;5074940;28;20033;-72
2021/05/04 03:13:27;;;;;;;11.80;3.70;;;8.80;93.70;;;;;;5026177;28;20028;-71
2021/05/04 03:15:52;;;;;;;7.65;2.97;;;8.70;93.60;;;;;;5076647;28;20131;-72
2021/05/04 03:18:19;;;;;;;7.00;2.90;;;8.70;93.60;;;;;;5042123;28;20485;-72
2021/05/04 03:20:46;;;;;;;6.20;3.13;;;8.70;93.60;;;;;;5076983;28;20033;-73
2021/05/04 03:23:12;;;;;;;8.17;3.50;;;8.80;93.70;;;;;;5076464;28;20036;-72
2021/05/04 03:25:39;;;;;;;7.47;2.80;;;8.80;93.60;;;;;;5076033;28;20123;-74
2021/05/04 03:28:05;;;;;;;6.77;2.87;;;8.80;93.30;;;;;;5076429;28;20024;-74
2021/05/04 03:30:30;;;;;;;6.40;3.13;;;8.80;93.10;;;;;;5076569;28;20085;-72
2021/05/04 03:32:56;;;;;;;5.23;2.67;;;8.90;93.00;;;;;;5058763;28;20051;-72
2021/05/04 03:35:22;;;;;;;4.87;3.00;;;8.90;92.90;;;;;;5076579;28;20032;-72
2021/05/04 03:37:48;;;;;;;7.97;2.57;;;8.90;92.60;;;;;;5058228;28;20025;-73
2021/05/04 03:40:14;;;;;;;5.60;2.90;;;8.90;92.50;;;;;;5041956;28;20109;-73
2021/05/04 03:42:40;;;;;;;8.87;2.70;;;9.00;92.50;;;;;;5075764;28;20119;-73
2021/05/04 03:45:07;;;;;;;4.50;2.30;;;9.00;92.30;;;;;;5058307;28;20044;-72
2021/05/04 03:47:33;;;;;;;6.60;2.90;;;9.00;92.40;;;;;;5038097;28;20025;-72
2021/05/04 03:49:58;;;;;;;6.30;3.00;;;9.00;92.80;;;;;;5056052;28;20419;-71
2021/05/04 03:52:24;;;;;;;9.10;3.77;;;9.00;93.10;;;;;;5021719;28;20032;-72
2021/05/04 03:54:50;;;;;;;7.97;3.30;;;8.90;93.50;;;;;;5022059;28;20033;-71
2021/05/04 03:57:15;;;;;;;4.70;3.00;;;8.90;93.60;;;;;;5071953;28;20036;-72
2021/05/04 03:59:41;;;;;;;6.07;3.03;;;8.90;93.70;;;;;;5076090;28;20028;-73
2021/05/04 04:02:06;;;;;;;7.10;3.20;;;8.80;94.00;;;;;;5073609;28;20028;-77
2021/05/04 04:04:32;;;;;;;5.10;3.10;;;8.80;94.10;;;;;;5068681;28;20391;-77
2021/05/04 04:06:58;;;;;;;6.40;3.50;;;8.70;94.20;;;;;;5075782;28;20024;-79
2021/05/04 04:09:23;;;;;;;5.73;3.10;;;8.70;94.30;;;;;;5057754;28;20037;-76
2021/05/04 04:11:49;;;;;;;6.93;3.97;;;8.70;94.50;;;;;;5041317;28;20476;-77
2021/05/04 04:14:14;;;;;;;7.57;3.87;;;8.70;94.40;;;;;;5057519;28;20123;-77
2021/05/04 04:16:40;;;;;;;8.33;3.57;;;8.70;94.50;;;;;;5075726;28;20115;-77
2021/05/04 04:19:08;;;;;;;6.17;3.33;;;8.70;94.40;;;;;;5041249;28;20037;-76
2021/05/04 04:21:33;;;;;;;7.57;3.40;;;8.70;94.40;;;;;;5057746;28;20027;-77
2021/05/04 04:23:59;;;;;;;8.73;3.63;;;8.70;94.30;;;;;;5075235;28;20375;-77
2021/05/04 04:26:25;;;;;;;8.63;3.80;;;8.70;94.30;;;;;;5057458;28;20045;-77
2021/05/04 04:28:50;;;;;;;9.43;3.60;;;8.70;94.50;;;;;;5075394;28;20082;-77
2021/05/04 04:31:16;;;;;;;7.30;4.03;;;8.70;94.80;;;;;;5075404;28;20086;-78
2021/05/04 04:33:41;;;;;;;10.70;4.00;;;8.70;95.10;;;;;;5075195;28;20104;-77
2021/05/04 04:36:07;;;;;;;8.80;4.37;;;8.70;95.30;;;;;;5075412;28;20024;-78
2021/05/04 04:38:33;;;;;;;8.70;4.10;;;8.60;95.50;;;;;;5075012;28;20083;-78
2021/05/04 04:40:58;;;;;;;11.23;5.13;;;8.60;95.70;;;;;;5075169;28;20052;-79
2021/05/04 04:43:24;;;;;;;10.47;4.80;;;8.50;95.90;;;;;;5075429;28;20116;-78
2021/05/04 04:45:49;;;;;;;7.93;5.47;;;8.50;96.10;;;;;;5015353;28;20021;-78
2021/05/04 04:48:15;;;;;;;9.67;6.10;;;8.40;96.40;;;;;;5037369;28;20021;-78
2021/05/04 04:50:41;;;;;;;15.53;6.37;;;8.30;96.60;;;;;;5055012;28;20040;-79
2021/05/04 04:53:06;;;;;;;10.03;5.20;;;8.40;96.80;;;;;;5054872;28;20056;-77
2021/05/04 04:55:33;;;;;;;13.87;5.97;;;8.40;96.90;;;;;;5055231;28;20114;-78
2021/05/04 04:57:59;;;;;;;10.53;6.00;;;8.30;97.00;;;;;;5054804;28;20047;-78
2021/05/04 05:00:25;;;;;;;9.63;6.27;;;8.30;97.00;;;;;;5054959;28;20461;-79
2021/05/04 05:02:51;;;;;;;9.10;5.70;;;8.30;97.10;;;;;;5048040;28;20056;-79
2021/05/04 05:05:17;;;;;;;8.40;5.53;;;8.30;97.20;;;;;;5056029;28;20164;-78
2021/05/04 05:07:42;;;;;;;10.60;5.97;;;8.30;97.20;;;;;;5074033;28;20016;-77
2021/05/04 05:10:09;;;;;;;10.70;6.20;;;8.40;97.20;;;;;;5061669;28;20025;-77
2021/05/04 05:12:34;;;;;;;9.20;5.27;;;8.30;97.20;;;;;;5074208;28;20040;-77
2021/05/04 05:15:02;;;;;;;12.47;5.83;;;8.40;97.30;;;;;;5044891;28;20043;-77
2021/05/04 05:17:28;;;;;;;13.40;6.10;;;8.40;97.20;;;;;;5038898;28;20465;-77
2021/05/04 05:19:53;;;;;;;9.73;5.53;;;8.40;97.20;;;;;;5073019;28;20128;-78
2021/05/04 05:22:19;;;;;;;8.73;5.53;;;8.40;97.20;;;;;;5031611;28;20029;-77
2021/05/04 05:24:44;;;;;;;13.43;5.30;;;8.50;97.20;;;;;;5071044;28;20056;-78
2021/05/04 05:27:10;;;;;;;11.63;5.43;;;8.50;97.20;;;;;;5039313;28;20573;-76
2021/05/04 05:29:36;;;;;;;13.20;4.93;;;8.50;97.00;;;;;;5073900;28;20085;-77
2021/05/04 05:32:03;;;;;;;8.77;4.27;;;8.50;96.90;;;;;;5074363;28;20107;-78
2021/05/04 05:34:29;;;;;;;10.80;4.43;;;8.60;96.90;;;;;;5073081;28;20473;-76
2021/05/04 05:36:55;;;;;;;8.33;4.10;;;8.60;96.60;;;;;;5073781;28;20043;-79
2021/05/04 05:39:22;;;;;;;9.27;3.70;;;8.70;96.70;;;;;;5055760;28;20027;-78
2021/05/04 05:41:47;;;;;;;11.30;3.20;;;8.80;96.10;;;;;;5072019;28;20494;-78
2021/05/04 05:44:14;;;;;;;7.77;3.17;;;8.80;96.10;;;;;;5034765;28;20024;-77
2021/05/04 05:46:40;;;;;;;6.83;2.87;;;8.80;95.60;;;;;;5041659;28;20021;-77
2021/05/04 05:49:06;;;;;;;4.33;2.17;;;8.90;95.40;;;;;;5041429;28;20025;-79
2021/05/04 05:51:32;;;;;;;7.27;2.53;;;9.10;95.10;;;;;;5062741;28;20020;-77
2021/05/04 05:53:58;;;;;;;8.97;2.50;;;9.00;95.00;;;;;;5074036;28;20419;-77
2021/05/04 05:56:24;;;;;;;6.60;2.00;;;9.10;94.50;;;;;;5056099;28;20533;-76
2021/05/04 05:58:49;;;;;;;5.70;3.03;;;9.10;94.60;;;;;;5043554;28;20025;-77
2021/05/04 06:01:15;;;;;;;5.03;1.63;;;9.20;94.40;;;;;;5076289;28;20032;-77
2021/05/04 06:03:41;;;;;;;5.03;2.23;;;9.30;94.40;;;;;;5073313;28;20024;-78
2021/05/04 06:06:06;;;;;;;4.77;1.67;;;9.30;94.20;;;;;;5064381;28;20086;-78
2021/05/04 06:08:32;;;;;;;5.10;1.80;;;9.30;93.80;;;;;;5076165;28;20028;-77
2021/05/04 06:10:58;;;;;;;6.73;2.10;;;9.50;93.60;;;;;;5073724;28;20031;-78
2021/05/04 06:13:23;;;;;;;9.70;1.67;;;9.50;93.20;;;;;;5075825;28;20039;-71
2021/05/04 06:15:49;;;;;;;8.13;1.70;;;9.60;93.20;;;;;;5072811;28;20028;-76
2021/05/04 06:18:15;;;;;;;6.00;1.73;;;9.60;92.80;;;;;;5073568;28;20031;-78
2021/05/04 06:20:41;;;;;;;5.73;1.47;;;9.70;92.80;;;;;;5073285;28;20103;-79
2021/05/04 06:23:07;;;;;;;5.77;1.30;;;9.70;93.00;;;;;;5055381;28;20540;-78
2021/05/04 06:25:33;;;;;;;6.47;1.40;;;9.70;92.80;;;;;;5072955;28;20044;-76
2021/05/04 06:28:08;;;;;;;4.27;1.27;;;9.80;92.90;;;;;;5055638;28;20056;-72
2021/05/04 06:30:36;;;;;;;6.27;1.43;;;9.70;92.80;;;;;;5073333;28;20141;-72
2021/05/04 06:33:07;;;;;;;6.53;1.53;;;9.70;93.10;;;;;;5055808;28;20029;-73
2021/05/04 06:35:36;;;;;;;5.47;1.50;;;9.70;93.40;;;;;;5073236;28;20029;-73
2021/05/04 06:38:03;;;;;;;10.07;2.63;;;9.70;93.40;;;;;;5055626;28;20020;-73
2021/05/04 06:40:29;;;;;;;6.17;1.90;;;9.70;93.60;;;;;;5054956;28;20036;-72
2021/05/04 06:42:55;;;;;;;5.80;1.70;;;9.60;93.70;;;;;;5072788;28;20028;-73
2021/05/04 06:45:21;;;;;;;9.47;2.30;;;9.60;93.80;;;;;;5057775;28;20082;-72
2021/05/04 06:47:46;;;;;;;7.37;2.03;;;9.60;93.60;;;;;;5058425;28;20035;-78
2021/05/04 06:50:12;;;;;;;9.73;2.13;;;9.60;93.80;;;;;;5077186;28;20056;-79
2021/05/04 06:52:38;;;;;;;6.50;1.80;;;9.60;93.60;;;;;;5059180;28;20032;-76
2021/05/04 06:55:04;;;;;;;6.80;2.10;;;9.70;93.60;;;;;;5061772;28;20480;-78
2021/05/04 06:57:30;;;;;;;5.83;1.83;;;9.70;93.40;;;;;;5061912;28;20033;-78
2021/05/04 06:59:55;;;;;;;8.50;2.67;;;9.80;93.30;;;;;;5078594;28;20491;-77
2021/05/04 07:02:21;;;;;;;9.03;2.60;;;9.90;93.30;;;;;;5077180;28;20017;-79
2021/05/04 07:04:47;;;;;;;9.77;2.33;;;9.90;93.00;;;;;;5060721;28;20021;-77
2021/05/04 07:07:13;;;;;;;9.27;1.83;;;10.00;92.90;;;;;;5079270;28;20031;-80
2021/05/04 07:09:38;;;;;;;8.43;2.20;;;10.00;92.70;;;;;;5078562;28;20047;-77
2021/05/04 07:12:04;;;;;;;7.60;1.93;;;10.10;92.70;;;;;;5065365;28;20029;-73
2021/05/04 07:14:31;;;;;;;7.33;2.23;;;10.20;92.50;;;;;;5050048;28;20387;-72
2021/05/04 07:17:00;;;;;;;14.30;2.90;;;10.20;92.20;;;;;;5063504;28;20031;-72
2021/05/04 07:19:26;;;;;;;8.03;2.23;;;10.30;92.00;;;;;;5086160;28;20493;-73
2021/05/04 07:21:52;;;;;;;9.30;2.27;;;10.20;91.90;;;;;;5083058;28;20027;-70
2021/05/04 07:24:17;;;;;;;8.80;2.17;;;10.20;92.40;;;;;;5077275;28;20024;-72
2021/05/04 07:26:43;;;;;;;8.33;2.37;;;10.10;92.70;;;;;;5076045;28;20104;-71
2021/05/04 07:29:08;;;;;;;9.50;2.10;;;10.10;92.80;;;;;;5058316;28;20056;-72
2021/05/04 07:31:34;;;;;;;8.00;2.00;;;10.10;93.30;;;;;;5076387;28;20059;-71
2021/05/04 07:34:01;;;;;;;7.00;2.40;;;10.10;93.10;;;;;;5052573;28;20033;-73
2021/05/04 07:36:27;;;;;;;10.00;2.23;;;10.10;93.00;;;;;;5089029;28;20027;-72
2021/05/04 07:38:52;;;;;;;9.40;2.80;;;10.20;93.00;;;;;;5083576;28;20048;-71
2021/05/04 07:41:18;;;;;;;10.30;3.63;;;10.20;92.80;;;;;;5046850;28;20096;-72
2021/05/04 07:43:44;;;;;;;9.40;2.80;;;10.20;92.70;;;;;;5095061;28;20043;-71
2021/05/04 07:46:09;;;;;;;8.60;2.97;;;10.30;92.50;;;;;;5087011;28;20032;-71
2021/05/04 07:48:35;;;;;;;8.53;2.63;;;10.30;92.40;;;;;;5057411;28;20024;-72
2021/05/04 07:51:04;;;;;;;8.03;2.03;;;10.40;92.30;;;;;;5075407;28;20089;-72
2021/05/04 07:53:30;;;;;;;6.33;2.10;;;10.40;92.30;;;;;;5066556;28;20022;-73
2021/05/04 07:55:56;;;;;;;4.77;1.33;;;10.40;92.00;;;;;;5078693;28;20025;-72
2021/05/04 07:58:21;;;;;;;7.50;1.50;;;10.30;92.00;;;;;;5065407;28;20021;-73
2021/05/04 08:00:47;;;;;;;6.17;1.77;;;10.10;92.50;;;;;;5058154;28;20376;-72
2021/05/04 08:03:14;;;;;;;12.60;2.73;;;10.00;92.90;;;;;;5075734;28;20041;-73
2021/05/04 08:05:39;;;;;;;4.60;1.87;;;9.80;93.20;;;;;;5082734;28;20048;-73
2021/05/04 08:08:05;;;;;;;5.77;2.03;;;9.80;93.50;;;;;;5081185;28;20052;-73
2021/05/04 08:10:31;;;;;;;10.63;2.60;;;9.60;94.10;;;;;;5075632;28;20555;-70
2021/05/04 08:12:58;;;;;;;12.33;3.93;;;9.60;94.10;;;;;;5037136;28;20021;-71
2021/05/04 08:15:23;;;;;;;11.33;3.50;;;9.60;94.40;;;;;;5073760;28;20064;-71
2021/05/04 08:18:10;;;;;;;13.60;3.30;;;9.70;94.90;;;;;;5064576;28;20075;-71
2021/05/04 08:20:44;;;;;;;12.60;2.60;;;9.80;94.90;;;;;;5057554;28;20029;-72
2021/05/04 08:23:10;;;;;;;9.65;2.55;;;10.00;94.70;;;;;;5057203;28;20111;-71
2021/05/04 08:25:35;;;;;;;13.73;3.53;;;10.10;94.30;;;;;;5057614;28;20100;-70
2021/05/04 08:28:01;;;;;;;13.63;3.10;;;10.30;94.10;;;;;;5075009;28;20129;-70
2021/05/04 08:30:27;;;;;;;13.60;3.47;;;10.30;93.90;;;;;;5057195;28;20106;-78
2021/05/04 08:32:53;;;;;;;9.03;2.40;;;10.50;93.50;;;;;;5056929;28;20025;-78
2021/05/04 08:35:19;;;;;;;11.67;3.07;;;10.60;92.80;;;;;;5074870;28;20568;-79
2021/05/04 08:37:44;;;;;;;8.20;2.40;;;10.70;92.30;;;;;;5077353;28;20103;-78
2021/05/04 08:40:11;;;;;;;11.27;2.67;;;10.70;91.60;;;;;;5056946;28;20036;-77
2021/05/04 08:42:36;;;;;;;12.67;2.17;;;10.80;91.30;;;;;;5074830;28;20055;-77
2021/05/04 08:45:04;;;;;;;12.47;2.50;;;10.90;90.90;;;;;;5057164;28;20067;-77
2021/05/04 08:47:30;;;;;;;9.77;1.83;;;10.90;89.80;;;;;;5085407;28;20016;-77
2021/05/04 08:49:56;;;;;;;10.60;2.47;;;11.00;88.80;;;;;;5074787;28;20109;-78
2021/05/04 08:52:22;;;;;;;14.10;2.47;;;11.00;89.30;;;;;;5056775;28;20555;-78
2021/05/04 08:54:47;;;;;;;13.97;2.43;;;11.00;89.80;;;;;;5074689;28;20036;-78
2021/05/04 08:57:13;;;;;;;12.70;2.43;;;11.00;88.80;;;;;;5056733;28;20039;-78
2021/05/04 08:59:39;;;;;;;11.47;2.40;;;11.10;87.60;;;;;;5074585;28;20024;-78
2021/05/04 09:02:05;;;;;;;8.37;2.13;;;11.10;87.80;;;;;;5056329;28;20086;-77
2021/05/04 09:04:45;;;;;;;20.67;4.10;;;11.00;90.20;;;;;;5056253;28;20028;-78
2021/05/04 09:07:29;;;;;;;16.50;4.30;;;10.90;92.00;;;;;;5073784;28;20387;-77
2021/05/04 09:12:59;;;;;;;17.90;4.87;;;10.40;94.30;;;;;;5073883;28;20028;-77
2021/05/04 09:21:05;;;;;;;11.43;4.37;;;10.20;96.00;;;;;;5073119;28;20479;-78
2021/05/04 09:23:30;;;;;;;16.80;5.13;;;10.20;95.70;;;;;;5070557;28;20017;-78
2021/05/04 09:25:56;;;;;;;19.27;4.97;;;10.20;95.70;;;;;;5073716;28;20025;-77
2021/05/04 09:28:22;;;;;;;21.20;4.60;;;10.10;95.70;;;;;;5023203;28;20495;-77
2021/05/04 09:30:56;;;;;;;19.10;4.83;;;10.10;95.50;;;;;;5056742;28;20029;-78
2021/05/04 09:33:22;;;;;;;13.10;4.75;;;10.10;95.90;;;;;;5074135;28;20048;-77
2021/05/04 09:35:48;;;;;;;12.30;3.43;;;10.30;96.10;;;;;;5055748;28;20024;-79
2021/05/04 09:38:16;;;;;;;9.73;3.20;;;10.30;95.00;;;;;;5056319;28;20112;-77
2021/05/04 09:40:48;;;;;;;12.17;3.23;;;10.40;94.20;;;;;;5075027;28;20023;-78
2021/05/04 09:43:18;;;;;;;12.10;2.80;;;10.50;93.60;;;;;;5083251;28;20083;-77
2021/05/04 09:45:50;;;;;;;10.00;2.30;;;10.50;93.30;;;;;;5067404;28;20016;-77
2021/05/04 09:48:32;;;;;;;11.50;3.00;;;10.50;92.80;;;;;;5052892;28;20120;-79
2021/05/04 09:51:19;;;;;;;15.13;4.27;;;10.40;94.20;;;;;;5054752;28;20060;-82
2021/05/04 09:53:49;;;;;;;13.63;3.20;;;10.40;95.00;;;;;;5055820;28;20397;-79
2021/05/04 09:56:40;;;;;;;20.83;3.20;;;10.10;95.00;;;;;;5073740;28;20056;-80
2021/05/04 09:59:06;;;;;;;15.00;3.37;;;9.80;95.10;;;;;;5074340;28;20032;-82
2021/05/04 10:01:32;;;;;;;13.23;2.67;;;9.60;95.40;;;;;;5055858;28;20025;-77
2021/05/04 10:03:58;;;;;;;12.23;3.17;;;9.50;96.10;;;;;;5055820;28;20032;-79
2021/05/04 10:06:24;;;;;;;16.70;3.80;;;9.50;96.50;;;;;;5073685;28;20086;-78
2021/05/04 10:08:51;;;;;;;17.90;4.27;;;9.60;96.70;;;;;;5073826;28;20020;-78
2021/05/04 10:11:19;;;;;;;15.27;4.23;;;9.70;96.60;;;;;;5056044;28;20119;-81
2021/05/04 10:13:54;;;;;;;12.63;3.60;;;9.60;96.40;;;;;;5055777;28;20455;-78
2021/05/04 10:16:27;;;;;;;15.80;3.77;;;9.60;96.20;;;;;;5073628;28;20059;-80
2021/05/04 10:18:58;;;;;;;14.55;4.78;;;9.70;96.40;;;;;;5062655;28;20035;-78
2021/05/04 10:21:25;;;;;;;15.57;3.07;;;9.80;96.70;;;;;;5074880;28;20437;-78
2021/05/04 10:23:51;;;;;;;13.70;2.03;;;9.90;96.10;;;;;;5089002;28;20091;-78
2021/05/04 10:26:19;;;;;;;13.23;2.13;;;9.90;95.50;;;;;;5057541;28;20091;-77
2021/05/04 10:28:51;;;;;;;13.37;1.70;;;9.90;95.10;;;;;;5072703;28;20079;-76
2021/05/04 10:31:17;;;;;;;10.10;1.40;;;9.90;94.50;;;;;;5073356;28;20034;-79
2021/05/04 10:33:44;;;;;;;8.63;1.17;;;10.10;94.50;;;;;;5055916;28;20416;-77
2021/05/04 10:36:32;;;;;;;5.63;1.10;;;10.40;93.70;;;;;;5055252;28;20025;-77
2021/05/04 10:38:59;;;;;;;10.83;1.10;;;10.50;92.80;;;;;;5073374;28;20159;-78
2021/05/04 10:41:25;;;;;;;6.47;0.87;;;10.60;91.70;;;;;;5055264;28;20495;-76
2021/05/04 10:44:04;;;;;;;7.50;0.90;;;10.80;90.40;;;;;;5073364;28;20021;-78
2021/05/04 10:46:41;;;;;;;10.67;1.00;;;11.00;90.50;;;;;;5073229;28;20024;-78
2021/05/04 10:49:09;;;;;;;4.00;0.90;;;11.10;89.00;;;;;;5073345;28;20019;-76
2021/05/04 10:52:01;;;;;;;3.83;0.68;;;11.20;86.10;;;;;;5073460;28;20017;-77
2021/05/04 10:54:47;;;;;;;9.13;0.90;;;11.20;82.50;;;;;;5051237;28;20423;-76
2021/05/04 10:57:12;;;;;;;3.83;0.60;;;11.00;81.70;;;;;;5072924;28;20032;-77
2021/05/04 10:59:38;;;;;;;6.17;0.70;;;10.80;81.40;;;;;;5073139;28;20087;-78
2021/05/04 11:02:09;;;;;;;7.70;0.90;;;10.60;81.20;;;;;;5054880;28;20108;-77
2021/05/04 11:04:42;;;;;;;4.53;0.80;;;10.40;83.70;;;;;;5054788;28;20024;-77
2021/05/04 11:07:08;;;;;;;4.73;0.97;;;10.30;84.50;;;;;;5072929;28;20468;-78
2021/05/04 11:09:39;;;;;;;2.33;0.60;;;10.50;86.30;;;;;;5073315;28;20060;-77
2021/05/04 11:12:05;;;;;;;7.10;0.80;;;10.60;85.20;;;;;;5073115;28;20111;-78
2021/05/04 11:14:32;;;;;;;7.17;1.00;;;10.60;82.40;;;;;;5072946;28;20370;-76
2021/05/04 11:16:57;;;;;;;7.03;0.87;;;10.60;80.80;;;;;;5055200;28;20024;-77
2021/05/04 11:19:28;;;;;;;3.73;0.77;;;10.60;81.00;;;;;;5073267;28;20024;-76
2021/05/04 11:22:05;;;;;;;5.97;0.70;;;10.50;82.30;;;;;;5054944;28;20430;-78
2021/05/04 11:24:33;;;;;;;5.97;0.70;;;10.30;82.70;;;;;;5055156;28;20028;-76
2021/05/04 11:27:06;;;;;;;8.40;1.10;;;10.30;84.70;;;;;;5072554;28;20048;-77
2021/05/04 11:29:31;;;;;;;6.68;0.82;;;10.80;85.60;;;;;;5072723;28;20043;-77
2021/05/04 11:32:13;;;;;;;5.20;0.80;;;11.20;82.60;;;;;;5056831;28;20024;-75
2021/05/04 11:35:02;;;;;;;5.03;0.70;;;11.40;81.20;;;;;;5058652;28;20039;-73
2021/05/04 11:37:30;;;;;;;8.55;1.30;;;11.60;79.20;;;;;;5065321;28;20041;-74
2021/05/04 11:40:05;;;;;;;5.32;0.77;;;11.70;75.80;;;;;;5076329;28;20029;-73
2021/05/04 11:42:39;;;;;;;4.90;0.70;;;11.60;74.00;;;;;;5058636;28;20085;-72
2021/05/04 11:45:05;;;;;;;4.13;0.82;;;11.50;72.80;;;;;;5076456;28;20032;-73
2021/05/04 11:47:31;;;;;;;3.60;0.77;;;11.40;72.70;;;;;;5058836;28;20044;-73
2021/05/04 11:50:14;;;;;;;2.17;0.50;;;11.40;71.20;;;;;;5076162;28;20100;-72
2021/05/04 11:52:43;;;;;;;3.90;0.60;;;11.40;73.20;;;;;;5076100;28;20032;-73
2021/05/04 11:55:13;;;;;;;4.63;0.87;;;11.30;71.30;;;;;;5075540;28;20024;-72
2021/05/04 11:57:40;;;;;;;6.43;1.33;;;11.30;71.30;;;;;;5073087;28;20368;-74
2021/05/04 12:00:09;;;;;;;2.20;0.80;;;11.20;70.50;;;;;;5057181;28;20060;-73
2021/05/04 12:02:35;;;;;;;5.23;0.70;;;11.30;70.90;;;;;;5074711;28;20017;-74
2021/05/04 12:05:01;;;;;;;7.22;1.05;;;11.80;69.30;;;;;;5075275;28;20077;-74
2021/05/04 12:07:43;;;;;;;1.05;0.32;;;12.10;67.90;;;;;;5058364;28;20033;-74
2021/05/04 12:10:33;;;;;;;4.45;0.77;;;12.40;64.70;;;;;;5056467;28;20024;-73
2021/05/04 12:13:13;;;;;;;3.10;0.50;;;12.40;66.10;;;;;;5065761;28;20040;-78
2021/05/04 12:15:41;;;;;;;6.43;0.70;;;12.20;66.40;;;;;;5075512;28;20063;-76
2021/05/04 12:18:17;;;;;;;2.97;0.50;;;12.00;67.80;;;;;;5075429;28;20024;-77
2021/05/04 12:21:00;;;;;;;5.72;0.60;;;11.90;70.30;;;;;;5057645;28;20551;-77
2021/05/04 12:23:31;;;;;;;3.67;0.60;;;11.90;68.30;;;;;;5072292;28;20396;-78
2021/05/04 12:26:04;;;;;;;4.90;0.90;;;11.80;68.50;;;;;;5075284;28;20346;-74
2021/05/04 12:28:32;;;;;;;4.50;0.60;;;11.70;67.90;;;;;;5057125;28;20068;-74
2021/05/04 12:31:06;;;;;;;4.63;0.50;;;11.60;67.40;;;;;;5057263;28;20384;-75
2021/05/04 12:33:33;;;;;;;7.63;0.73;;;11.50;68.30;;;;;;5058094;28;20388;-74
2021/05/04 12:39:03;;;;;;;5.70;0.82;;;11.50;67.80;;;;;;5074985;28;20071;-73
2021/05/04 12:41:33;;;;;;;4.53;0.87;;;11.60;66.80;;;;;;5074462;28;20106;-75
2021/05/04 12:44:05;;;;;;;8.00;0.80;;;11.50;67.90;;;;;;5056918;28;20475;-74
2021/05/04 12:46:31;;;;;;;2.43;0.50;;;11.40;69.50;;;;;;5074920;28;20090;-74
2021/05/04 12:48:59;;;;;;;3.93;0.80;;;11.30;69.60;;;;;;5056913;28;20024;-73
2021/05/04 12:51:30;;;;;;;3.13;0.53;;;11.30;69.80;;;;;;5040364;28;20021;-73
2021/05/04 12:54:11;;;;;;;5.00;0.60;;;11.50;70.30;;;;;;5074822;28;20013;-74
2021/05/04 12:56:38;;;;;;;3.37;0.80;;;11.60;68.10;;;;;;5074268;28;20072;-74
2021/05/04 12:59:05;;;;;;;6.53;0.70;;;11.70;67.20;;;;;;5074385;28;20392;-73
2021/05/04 13:01:33;;;;;;;3.70;0.60;;;11.60;66.40;;;;;;5074616;28;20376;-74
2021/05/04 13:04:00;;;;;;;10.53;1.30;;;11.70;66.30;;;;;;5054853;28;20012;-72